Satellite Precipitation Estimates (TXUS20 KWBC)
Issued by NWS

Home | Current Version | Previous Version | Text Only | Print | Product List | Glossary On
Versions: 1 2 3 4 5 6 7 8 9
000
SPTD31 TTPP 310927 RRA
SPECI
TTPP 310925Z 00000KT 9999 SCT014 24/23 Q1014=



USA.gov is the U.S. government's official web portal to all federal, state and local government web resources and services.